Map

Track Data

SID SEASON NUMBER BASIN SUBBASIN NAME ISO_TIME NATURE LAT LON WMO_WIND WMO_PRES WMO_AGENCY TRACK_TYPE DIST2LAND LANDFALL IFLAG USA_AGENCY USA_ATCF_ID USA_LAT USA_LON USA_RECORD USA_STATUS USA_WIND USA_PRES USA_SSHS USA_R34_NE USA_R34_SE USA_R34_SW USA_R34_NW USA_R50_NE USA_R50_SE USA_R50_SW USA_R50_NW USA_R64_NE USA_R64_SE USA_R64_SW USA_R64_NW USA_POCI USA_ROCI USA_RMW USA_EYE TOKYO_LAT TOKYO_LON TOKYO_GRADE TOKYO_WIND TOKYO_PRES TOKYO_R50_DIR TOKYO_R50_LONG TOKYO_R50_SHORT TOKYO_R30_DIR TOKYO_R30_LONG TOKYO_R30_SHORT TOKYO_LAND CMA_LAT CMA_LON CMA_CAT CMA_WIND CMA_PRES HKO_LAT HKO_LON HKO_CAT HKO_WIND HKO_PRES NEWDELHI_LAT NEWDELHI_LON NEWDELHI_GRADE NEWDELHI_WIND NEWDELHI_PRES NEWDELHI_CI NEWDELHI_DP NEWDELHI_POCI REUNION_LAT REUNION_LON REUNION_TYPE REUNION_WIND REUNION_PRES REUNION_TNUM REUNION_CI REUNION_RMW REUNION_R34_NE REUNION_R34_SE REUNION_R34_SW REUNION_R34_NW REUNION_R50_NE REUNION_R50_SE REUNION_R50_SW REUNION_R50_NW REUNION_R64_NE REUNION_R64_SE REUNION_R64_SW REUNION_R64_NW BOM_LAT BOM_LON BOM_TYPE BOM_WIND BOM_PRES BOM_TNUM BOM_CI BOM_RMW BOM_R34_NE BOM_R34_SE BOM_R34_SW BOM_R34_NW BOM_R50_NE BOM_R50_SE BOM_R50_SW BOM_R50_NW BOM_R64_NE BOM_R64_SE BOM_R64_SW BOM_R64_NW BOM_ROCI BOM_POCI BOM_EYE BOM_POS_METHOD BOM_PRES_METHOD NADI_LAT NADI_LON NADI_CAT NADI_WIND NADI_PRES WELLINGTON_LAT WELLINGTON_LON WELLINGTON_WIND WELLINGTON_PRES DS824_LAT DS824_LON DS824_STAGE DS824_WIND DS824_PRES TD9636_LAT TD9636_LON TD9636_STAGE TD9636_WIND TD9636_PRES TD9635_LAT TD9635_LON TD9635_WIND TD9635_PRES TD9635_ROCI NEUMANN_LAT NEUMANN_LON NEUMANN_CLASS NEUMANN_WIND NEUMANN_PRES MLC_LAT MLC_LON MLC_CLASS MLC_WIND MLC_PRES USA_GUST BOM_GUST BOM_GUST_PER REUNION_GUST REUNION_GUST_PER USA_SEAHGT USA_SEARAD_NE USA_SEARAD_SE USA_SEARAD_SW USA_SEARAD_NW STORM_SPEED STORM_DIR
1967266N11345 1967 108 NA NA NOT_NAMED 1967-09-22 12:00:00 TS 10.8000 -15.0000 atcf main 15 11 O_____________ atcf AL161967 10.8000 -15.0000 TD -5 12 276
1967266N11345 1967 108 NA NA NOT_NAMED 1967-09-22 15:00:00 TS 10.8627 -15.5924 main 40 40 P_____________ AL161967 10.8627 -15.5924 TD -5 12 275
1967266N11345 1967 108 NA NA NOT_NAMED 1967-09-22 18:00:00 TS 10.9000 -16.2000 atcf main 88 88 O_____________ atcf AL161967 10.9000 -16.2000 TD -5 12 272
1967266N11345 1967 108 NA NA NOT_NAMED 1967-09-22 21:00:00 TS 10.8999 -16.8351 main 125 125 P_____________ AL161967 10.8999 -16.8351 TD -5 13 270
1967266N11345 1967 108 NA NA NOT_NAMED 1967-09-23 00:00:00 TS 10.9000 -17.5000 atcf main 179 179 O_____________ atcf AL161967 10.9000 -17.5000 TD -5 13 272
1967266N11345 1967 108 NA NA NOT_NAMED 1967-09-23 03:00:00 TS 10.9499 -18.1924 main 226 218 P_____________ AL161967 10.9499 -18.1924 TD -5 14 274
1967266N11345 1967 108 NA NA NOT_NAMED 1967-09-23 06:00:00 TS 11.0000 -18.9000 atcf main 277 277 O_____________ atcf AL161967 11.0000 -18.9000 TD -5 15 272
1967266N11345 1967 108 NA NA NOT_NAMED 1967-09-23 09:00:00 TS 11.0003 -19.7050 main 352 352 P_____________ AL161967 11.0003 -19.7050 TD -5 14 270
1967266N11345 1967 108 NA NA NOT_NAMED 1967-09-23 12:00:00 TS 11.0000 -20.3000 atcf main 412 402 O_____________ atcf AL161967 11.0000 -20.3000 TD -5 5 274
1967266N11345 1967 108 NA NA NOT_NAMED 1967-09-23 15:00:00 TS 11.0339 -20.2103 main 402 397 P_____________ AL161967 11.0339 -20.2103 TD -5 1 0
1967266N11345 1967 108 NA NA NOT_NAMED 1967-09-23 18:00:00 TS 11.1000 -20.3000 atcf main 408 408 O_____________ atcf AL161967 11.1000 -20.3000 TD -5 13 277
1967266N11345 1967 108 NA NA NOT_NAMED 1967-09-23 21:00:00 TS 11.1873 -21.5173 main 529 529 P_____________ AL161967 11.1873 -21.5173 TD -5 26 274
1967266N11345 1967 108 NA NA NOT_NAMED 1967-09-24 00:00:00 TS 11.3000 -22.9000 atcf main 675 675 O_____________ atcf AL161967 11.3000 -22.9000 TD -5 20 278
1967266N11345 1967 108 NA NA NOT_NAMED 1967-09-24 03:00:00 TS 11.4640 -23.5699 main 747 747 P_____________ AL161967 11.4640 -23.5699 TD -5 11 286
1967266N11345 1967 108 NA NA NOT_NAMED 1967-09-24 06:00:00 TS 11.6000 -24.0000 atcf main 785 785 O_____________ atcf AL161967 11.6000 -24.0000 TD -5 9 279
1967266N11345 1967 108 NA NA NOT_NAMED 1967-09-24 09:00:00 TS 11.6148 -24.4927 main 833 833 P_____________ AL161967 11.6148 -24.4927 TD -5 10 270
1967266N11345 1967 108 NA NA NOT_NAMED 1967-09-24 12:00:00 TS 11.6000 -25.0000 atcf main 883 883 O_____________ atcf AL161967 11.6000 -25.0000 TD -5 11 272
1967266N11345 1967 108 NA NA NOT_NAMED 1967-09-24 15:00:00 TS 11.6499 -25.5774 main 943 939 P_____________ AL161967 11.6276 -25.6150 TD -5 12 275
1967266N11345 1967 108 NA NA NOT_NAMED 1967-09-24 18:00:00 TS 11.7000 -26.2000 atcf main 1000 1000 O_____________ atcf AL161967 11.7000 -26.2000 TD -5 12 272
1967266N11345 1967 108 NA NA NOT_NAMED 1967-09-24 21:00:00 TS 11.6998 -26.8276 main 1061 1061 P_____________ AL161967 11.8570 -26.5774 TD -5 12 273
1967266N11345 1967 108 NA NA NOT_NAMED 1967-09-25 00:00:00 TS 11.7600 -27.4000 25 hurdat_atl main 1120 1120 O_____________ hurdat_atl AL161967 12.0000 -27.0000 TD 25 -1 13 276
1967266N11345 1967 108 NA NA NOT_NAMED 1967-09-25 03:00:00 TS 11.8236 -28.0983 main 1192 1192 P_____________ AL161967 12.0226 -27.6976 TD 25 -1 14 275
1967266N11345 1967 108 NA NA NOT_NAMED 1967-09-25 06:00:00 TS 11.8857 -28.7857 25 hurdat_atl main 1262 1262 O_____________ hurdat_atl AL161967 12.0000 -28.5000 TD 25 -1 13 276
1967266N11345 1967 108 NA NA NOT_NAMED 1967-09-25 09:00:00 TS 11.9496 -29.3713 main 1325 1322 P_____________ AL161967 11.9998 -29.2500 TD 27 -1 12 275
1967266N11345 1967 108 NA NA NOT_NAMED 1967-09-25 12:00:00 TS 12.0000 -30.0000 30 hurdat_atl main 1386 1386 O_____________ hurdat_atl AL161967 12.0000 -30.0000 TD 30 -1 14 273
1967266N11345 1967 108 NA NA NOT_NAMED 1967-09-25 15:00:00 TS 12.0325 -30.7600 main 1470 1470 P_____________ AL161967 11.9998 -30.7500 TD 30 -1 15 272
1967266N11345 1967 108 NA NA NOT_NAMED 1967-09-25 18:00:00 TS 12.0500 -31.5500 30 hurdat_atl main 1542 1553 O_____________ hurdat_atl AL161967 12.0000 -31.5000 TD 30 -1 15 271
1967266N11345 1967 108 NA NA NOT_NAMED 1967-09-25 21:00:00 TS 12.0572 -32.2788 main 1627 1627 P_____________ AL161967 11.9998 -32.2500 TD 30 -1 14 270
1967266N11345 1967 108 NA NA NOT_NAMED 1967-09-26 00:00:00 TS 12.0500 -33.0000 30 hurdat_atl main 1702 1704 O_____________ hurdat_atl AL161967 12.0000 -33.0000 TD 30 -1 14 269
1967266N11345 1967 108 NA NA NOT_NAMED 1967-09-26 03:00:00 TS 12.0249 -33.7575 main 1789 1769 P_____________ AL161967 12.0000 -33.7725 TD 30 -1 15 268
1967266N11345 1967 108 NA NA NOT_NAMED 1967-09-26 06:00:00 TS 12.0000 -34.5000 30 hurdat_atl main 1769 1745 O_____________ hurdat_atl AL161967 12.0000 -34.5000 TD 30 -1 15 269
1967266N11345 1967 108 NA NA NOT_NAMED 1967-09-26 09:00:00 TS 12.0001 -35.2387 main 1745 1727 P_____________ AL161967 11.9999 -35.1525 TD 30 -1 13 270
1967266N11345 1967 108 NA NA NOT_NAMED 1967-09-26 12:00:00 TS 12.0000 -35.8500 30 hurdat_atl main 1727 1716 O_____________ hurdat_atl AL161967 12.0000 -35.7000 TD 30 -1 10 269
1967266N11345 1967 108 NA NA NOT_NAMED 1967-09-26 15:00:00 TS 11.9748 -36.2387 main 1716 1708 P_____________ AL161967 11.9999 -36.1525 TD 30 -1 6 266
1967266N11345 1967 108 NA NA NOT_NAMED 1967-09-26 18:00:00 TS 11.9500 -36.5000 30 hurdat_atl main 1708 1693 O_____________ hurdat_atl AL161967 12.0000 -36.5000 TD 30 -1 5 267
1967266N11345 1967 108 NA NA NOT_NAMED 1967-09-26 21:00:00 TS 11.9462 -36.7612 main 1691 1686 P_____________ AL161967 11.9999 -36.7725 TD 32 -1 5 270
1967266N11345 1967 108 NA NA NOT_NAMED 1967-09-27 00:00:00 TS 11.9500 -37.0000 35 hurdat_atl main 1697 1686 O_____________ hurdat_atl AL161967 12.0000 -37.0000 TS 35 0 5 270
1967266N11345 1967 108 NA NA NOT_NAMED 1967-09-27 03:00:00 TS 11.9500 -37.2500 main 1683 1681 P_____________ AL161967 12.0000 -37.2500 TS 35 0 5 270
1967266N11345 1967 108 NA NA NOT_NAMED 1967-09-27 06:00:00 TS 11.9500 -37.5000 35 hurdat_atl main 1688 1674 O_____________ hurdat_atl AL161967 12.0000 -37.5000 TS 35 0 5 270
1967266N11345 1967 108 NA NA NOT_NAMED 1967-09-27 09:00:00 TS 11.9462 -37.7388 main 1674 1670 P_____________ AL161967 12.0000 -37.7425 TS 35 0 5 270
1967266N11345 1967 108 NA NA NOT_NAMED 1967-09-27 12:00:00 TS 11.9500 -38.0000 35 hurdat_atl main 1681 1670 O_____________ hurdat_atl AL161967 12.0000 -38.0000 TS 35 0 6 272
1967266N11345 1967 108 NA NA NOT_NAMED 1967-09-27 15:00:00 TS 11.9638 -38.3213 main 1670 1642 P_____________ AL161967 11.9850 -38.2925 TS 35 0 6 274
1967266N11345 1967 108 NA NA NOT_NAMED 1967-09-27 18:00:00 TS 12.0000 -38.6500 35 hurdat_atl main 1642 1614 O_____________ hurdat_atl AL161967 12.0000 -38.6000 TS 35 0 6 279
1967266N11345 1967 108 NA NA NOT_NAMED 1967-09-27 21:00:00 TS 12.0562 -38.9325 main 1620 1592 P_____________ AL161967 12.0850 -38.9075 TS 37 0 6 286
1967266N11345 1967 108 NA NA NOT_NAMED 1967-09-28 00:00:00 TS 12.1500 -39.2000 40 hurdat_atl main 1598 1577 O_____________ hurdat_atl AL161967 12.2000 -39.2000 TS 40 0 6 292
1967266N11345 1967 108 NA NA NOT_NAMED 1967-09-28 03:00:00 TS 12.2813 -39.4975 main 1577 1565 P_____________ AL161967 12.2925 -39.4725 TS 40 0 6 299
1967266N11345 1967 108 NA NA NOT_NAMED 1967-09-28 06:00:00 TS 12.4500 -39.7500 40 hurdat_atl main 1572 1556 O_____________ hurdat_atl AL161967 12.4000 -39.7000 TS 40 0 5 313
1967266N11345 1967 108 NA NA NOT_NAMED 1967-09-28 09:00:00 TS 12.6500 -39.9013 main 1560 1560 P_____________ AL161967 12.5425 -39.8725 TS 40 0 5 329
1967266N11345 1967 108 NA NA NOT_NAMED 1967-09-28 12:00:00 TS 12.8500 -40.0000 40 hurdat_atl main 1571 1563 O_____________ hurdat_atl AL161967 12.7000 -40.0000 TS 40 0 4 330
1967266N11345 1967 108 NA NA NOT_NAMED 1967-09-28 15:00:00 TS 13.0075 -40.1113 main 1570 1568 P_____________ AL161967 12.8500 -40.1150 TS 40 0 4 327
1967266N11345 1967 108 NA NA NOT_NAMED 1967-09-28 18:00:00 TS 13.1500 -40.2000 40 hurdat_atl main 1575 1573 O_____________ hurdat_atl AL161967 13.0000 -40.2000 TS 40 0 3 334
1967266N11345 1967 108 NA NA NOT_NAMED 1967-09-28 21:00:00 TS 13.2887 -40.2538 main 1573 1573 P_____________ AL161967 13.1425 -40.2500 TS 37 0 3 343
1967266N11345 1967 108 NA NA NOT_NAMED 1967-09-29 00:00:00 TS 13.4500 -40.3000 35 hurdat_atl main 1587 1586 O_____________ hurdat_atl AL161967 13.3000 -40.3000 TS 35 0 4 343
1967266N11345 1967 108 NA NA NOT_NAMED 1967-09-29 03:00:00 TS 13.6637 -40.3675 main 1593 1593 P_____________ AL161967 13.4925 -40.3925 TS 35 0 5 342
1967266N11345 1967 108 NA NA NOT_NAMED 1967-09-29 06:00:00 TS 13.9000 -40.4500 35 hurdat_atl main 1608 1600 O_____________ hurdat_atl AL161967 13.7000 -40.5000 TS 35 0 5 340
1967266N11345 1967 108 NA NA NOT_NAMED 1967-09-29 09:00:00 TS 14.1250 -40.5350 main 1615 1614 P_____________ AL161967 13.9000 -40.5925 TS 35 0 5 337
1967266N11345 1967 108 NA NA NOT_NAMED 1967-09-29 12:00:00 TS 14.3500 -40.6500 35 hurdat_atl main 1629 1621 O_____________ hurdat_atl AL161967 14.1000 -40.7000 TS 35 0 5 329
1967266N11345 1967 108 NA NA NOT_NAMED 1967-09-29 15:00:00 TS 14.5788 -40.8137 main 1629 1621 P_____________ AL161967 14.3000 -40.8350 TS 35 0 6 323
1967266N11345 1967 108 NA NA NOT_NAMED 1967-09-29 18:00:00 TS 14.8000 -41.0000 35 1004 hurdat_atl main 1630 1630 O_____________ hurdat_atl AL161967 14.5000 -41.0000 TS 35 1004 0 6 322
1967266N11345 1967 108 NA NA NOT_NAMED 1967-09-29 21:00:00 TS 15.0112 -41.1675 main 1631 1631 P_____________ AL161967 14.6925 -41.1925 TS 32 -1 5 320
1967266N11345 1967 108 NA NA NOT_NAMED 1967-09-30 00:00:00 TS 15.2000 -41.3500 30 hurdat_atl main 1639 1626 O_____________ hurdat_atl AL161967 14.9000 -41.4000 TD 30 -1 5 310
1967266N11345 1967 108 NA NA NOT_NAMED 1967-09-30 03:00:00 TS 15.3500 -41.5788 main 1634 1627 P_____________ AL161967 15.1500 -41.6075 TD 30 -1 5 303
1967266N11345 1967 108 NA NA NOT_NAMED 1967-09-30 06:00:00 TS 15.4857 -41.8000 30 hurdat_atl main 1629 1622 O_____________ hurdat_atl AL161967 15.4000 -41.8000 TD 30 -1 5 311
1967266N11345 1967 108 NA NA NOT_NAMED 1967-09-30 09:00:00 TS 15.6641 -41.9583 main 1632 1632 P_____________ AL161967 15.6150 -41.9501 TD 27 -1 5 321
1967266N11345 1967 108 NA NA NOT_NAMED 1967-09-30 12:00:00 TS 15.8400 -42.1000 25 hurdat_atl main 1634 1629 O_____________ hurdat_atl AL161967 15.8000 -42.1000 TD 25 -1 4 314
1967266N11345 1967 108 NA NA NOT_NAMED 1967-09-30 15:00:00 TS 15.9650 -42.2850 main 1638 1632 P_____________ AL161967 15.9650 -42.2850 TD 25 -1 5 304
1967266N11345 1967 108 NA NA NOT_NAMED 1967-09-30 18:00:00 TS 16.1000 -42.5000 25 hurdat_atl main 1634 1628 O_____________ hurdat_atl AL161967 16.1000 -42.5000 TD 25 -1 5 300
1967266N11345 1967 108 NA NA NOT_NAMED 1967-09-30 21:00:00 TS 16.2150 -42.7425 main 1630 1621 P_____________ AL161967 16.2150 -42.7425 TD 25 -1 5 293
1967266N11345 1967 108 NA NA NOT_NAMED 1967-10-01 00:00:00 TS 16.3000 -43.0000 25 hurdat_atl main 1621 1609 O_____________ hurdat_atl AL161967 16.3000 -43.0000 TD 25 -1 5 286
1967266N11345 1967 108 NA NA NOT_NAMED 1967-10-01 03:00:00 TS 16.3575 -43.2500 main 1612 1599 P_____________ AL161967 16.3575 -43.2500 TD 25 -1 5 282
1967266N11345 1967 108 NA NA NOT_NAMED 1967-10-01 06:00:00 TS 16.4000 -43.5000 25 hurdat_atl main 1599 1586 O_____________ hurdat_atl AL161967 16.4000 -43.5000 TD 25 -1 5 281
1967266N11345 1967 108 NA NA NOT_NAMED 1967-10-01 09:00:00 TS 16.4476 -43.7500 main 1586 1575 P_____________ AL161967 16.4476 -43.7500 TD 25 -1 5 282
1967266N11345 1967 108 NA NA NOT_NAMED 1967-10-01 12:00:00 TS 16.5000 -44.0000 25 hurdat_atl main 1575 O_____________ hurdat_atl AL161967 16.5000 -44.0000 TD 25 -1 5 282

About IBTrACS Database

This database is a web-friendly format of International Best Track Archive for Climate Stewardship (IBTrACS), a global best track data archive curated by NOAA dating back to 1842.

Updated: 2022-10-05